createdAt,value
2023-02-21T00:00:17.381Z,98664.09
2023-02-21T00:02:36.501Z,98660.00
2023-02-21T00:04:56.080Z,98663.66
2023-02-21T00:07:13.301Z,98661.19
2023-02-21T00:09:30.505Z,98658.75
2023-02-21T00:11:50.354Z,98658.75
2023-02-21T00:14:07.592Z,98649.34
2023-02-21T00:16:24.961Z,98648.53
2023-02-21T00:18:42.408Z,98661.66
2023-02-21T00:20:59.669Z,98654.00
2023-02-21T00:23:17.154Z,98654.84
2023-02-21T00:25:34.422Z,98634.97
2023-02-21T00:27:57.122Z,98641.09
2023-02-21T00:30:14.480Z,98637.59
2023-02-21T00:32:32.842Z,98634.22
2023-02-21T00:34:50.188Z,98639.53
2023-02-21T00:37:08.004Z,98634.31
2023-02-21T00:39:25.255Z,98638.50
2023-02-21T00:41:42.459Z,98637.69
2023-02-21T00:44:02.323Z,98635.09
2023-02-21T00:46:19.863Z,98641.25
2023-02-21T00:48:38.082Z,98645.47
2023-02-21T00:50:55.424Z,98637.00
2023-02-21T00:53:12.677Z,98642.28
2023-02-21T00:55:30.099Z,98634.44
2023-02-21T00:57:55.217Z,98624.03
2023-02-21T01:00:15.008Z,98623.94
2023-02-21T01:02:32.361Z,98627.31
2023-02-21T01:04:49.602Z,98624.63
2023-02-21T01:07:07.277Z,98622.00
2023-02-21T01:09:26.311Z,98616.81
2023-02-21T01:11:44.366Z,98612.44
2023-02-21T01:14:01.657Z,98616.84
2023-02-21T01:16:22.371Z,98620.31
2023-02-21T01:18:39.604Z,98616.91
2023-02-21T01:20:56.839Z,98617.84
2023-02-21T01:23:15.568Z,98611.81
2023-02-21T01:25:32.936Z,98618.84
2023-02-21T01:27:50.634Z,98620.53
2023-02-21T01:30:07.915Z,98625.72
2023-02-21T01:32:27.932Z,98627.38
2023-02-21T01:34:45.183Z,98620.50
2023-02-21T01:37:02.471Z,98622.22
2023-02-21T01:39:30.874Z,98618.75
2023-02-21T01:41:49.549Z,98617.13
2023-02-21T01:44:15.188Z,98619.72
2023-02-21T01:46:34.056Z,98613.75
2023-02-21T01:48:57.643Z,98619.13
2023-02-21T01:51:17.555Z,98613.13
2023-02-21T01:53:39.905Z,98614.09
2023-02-21T01:55:58.044Z,98616.75
2023-02-21T01:58:15.446Z,98617.69
2023-02-21T02:00:33.586Z,98615.03
2023-02-21T02:02:58.189Z,98609.81
2023-02-21T02:05:19.940Z,98611.56
2023-02-21T02:07:37.221Z,98602.13
2023-02-21T02:09:57.497Z,98609.22
2023-02-21T02:12:25.908Z,98605.81
2023-02-21T02:15:03.306Z,98606.66
2023-02-21T02:17:16.598Z,98606.78
2023-02-21T02:19:46.510Z,98608.56
2023-02-21T02:22:23.831Z,98607.72
2023-02-21T02:24:53.006Z,98603.41
2023-02-21T02:27:21.284Z,98602.56
2023-02-21T02:29:47.814Z,98604.41
2023-02-21T02:32:17.671Z,98604.47
2023-02-21T02:34:48.373Z,98604.47
2023-02-21T02:36:56.709Z,98598.47
2023-02-21T02:39:08.423Z,98590.78
2023-02-21T02:41:31.886Z,98602.91
2023-02-21T02:43:40.970Z,98593.44
2023-02-21T02:45:49.225Z,98594.28
2023-02-21T02:47:59.429Z,98596.03
2023-02-21T02:50:12.471Z,98599.47
2023-02-21T02:52:17.412Z,98598.75
2023-02-21T02:54:22.293Z,98600.53
2023-02-21T02:56:28.985Z,98604.81
2023-02-21T02:58:37.725Z,98611.69
2023-02-21T03:00:48.639Z,98610.78
2023-02-21T03:03:09.755Z,98609.94
2023-02-21T03:05:30.510Z,98603.94
2023-02-21T03:07:45.225Z,98606.56
2023-02-21T03:10:03.553Z,98614.28
2023-02-21T03:12:18.285Z,98614.34
2023-02-21T03:14:27.394Z,98615.19
2023-02-21T03:16:36.289Z,98615.19
2023-02-21T03:18:45.546Z,98611.78
2023-02-21T03:20:58.726Z,98614.38
2023-02-21T03:23:05.256Z,98617.03
2023-02-21T03:25:11.749Z,98622.28
2023-02-21T03:27:18.230Z,98618.88
2023-02-21T03:29:27.096Z,98624.13
2023-02-21T03:31:38.120Z,98622.22
2023-02-21T03:33:43.956Z,98615.25
2023-02-21T03:35:48.976Z,98609.00
2023-02-21T03:37:56.567Z,98612.19
2023-02-21T03:40:04.654Z,98608.59
2023-02-21T03:42:11.825Z,98602.47
2023-02-21T03:44:18.264Z,98607.56
2023-02-21T03:46:23.627Z,98604.97
2023-02-21T03:48:32.390Z,98605.81
2023-02-21T03:50:55.621Z,98605.91
2023-02-21T03:53:09.749Z,98597.22
2023-02-21T03:55:15.902Z,98601.56
2023-02-21T03:57:20.965Z,98598.13
2023-02-21T03:59:28.079Z,98599.81
2023-02-21T04:01:33.396Z,98602.22
2023-02-21T04:03:39.092Z,98597.94
2023-02-21T04:05:46.419Z,98594.25
2023-02-21T04:07:52.353Z,98594.16
2023-02-21T04:09:59.767Z,98594.03
2023-02-21T04:12:15.492Z,98591.41
2023-02-21T04:14:20.128Z,98592.97
2023-02-21T04:16:25.237Z,98586.69
2023-02-21T04:18:31.488Z,98588.94
2023-02-21T04:20:38.808Z,98589.56
2023-02-21T04:22:54.548Z,98588.50
2023-02-21T04:25:09.704Z,98582.41
2023-02-21T04:27:23.765Z,98586.66
2023-02-21T04:29:33.375Z,98589.91
2023-02-21T04:31:38.504Z,98593.56
2023-02-21T04:33:48.426Z,98591.16
2023-02-21T04:35:59.991Z,98591.25
2023-02-21T04:38:17.554Z,98591.25
2023-02-21T04:40:25.095Z,98578.44
2023-02-21T04:42:29.939Z,98581.97
2023-02-21T04:44:34.951Z,98575.75
2023-02-21T04:46:39.773Z,98573.16
2023-02-21T04:48:45.964Z,98566.19
2023-02-21T04:50:50.666Z,98564.44
2023-02-21T04:52:55.474Z,98557.31
2023-02-21T04:55:00.587Z,98558.88
2023-02-21T04:57:07.926Z,98551.78
2023-02-21T04:59:12.876Z,98558.13
2023-02-21T05:01:18.968Z,98562.72
2023-02-21T05:03:24.597Z,98554.25
2023-02-21T05:05:29.608Z,98550.81
2023-02-21T05:07:34.416Z,98558.78
2023-02-21T05:09:39.155Z,98562.13
2023-02-21T05:11:43.965Z,98555.28
2023-02-21T05:13:51.735Z,98570.88
2023-02-21T05:15:56.599Z,98557.22
2023-02-21T05:18:01.611Z,98562.50
2023-02-21T05:20:11.949Z,98559.25
2023-02-21T05:22:20.566Z,98555.94
2023-02-21T05:24:26.007Z,98560.03
2023-02-21T05:26:36.918Z,98565.19
2023-02-21T05:28:43.227Z,98558.16
2023-02-21T05:30:50.863Z,98557.31
2023-02-21T05:32:55.743Z,98563.47
2023-02-21T05:35:00.526Z,98561.75
2023-02-21T05:37:05.361Z,98552.06
2023-02-21T05:39:11.297Z,98552.94
2023-02-21T05:41:16.557Z,98552.78
2023-02-21T05:43:21.623Z,98551.97
2023-02-21T05:45:26.427Z,98556.28
2023-02-21T05:47:33.740Z,98555.56
2023-02-21T05:49:38.600Z,98562.63
2023-02-21T05:51:45.902Z,98558.34
2023-02-21T05:53:51.740Z,98562.88
2023-02-21T05:55:56.629Z,98555.16
2023-02-21T05:58:01.500Z,98551.84
2023-02-21T06:00:06.840Z,98554.50
2023-02-21T06:02:16.824Z,98549.94
2023-02-21T06:04:24.257Z,98554.19
2023-02-21T06:06:29.601Z,98553.47
2023-02-21T06:08:34.178Z,98552.94
2023-02-21T06:10:39.150Z,98550.28
2023-02-21T06:12:44.033Z,98550.25
2023-02-21T06:14:48.946Z,98550.19
2023-02-21T06:16:53.891Z,98548.66
2023-02-21T06:19:00.049Z,98553.50
2023-02-21T06:21:07.734Z,98558.75
2023-02-21T06:23:12.557Z,98557.09
2023-02-21T06:25:17.386Z,98556.25
2023-02-21T06:27:22.319Z,98563.00
2023-02-21T06:29:27.081Z,98557.72
2023-02-21T06:31:31.950Z,98560.44
2023-02-21T06:33:36.874Z,98563.03
2023-02-21T06:35:41.758Z,98564.63
2023-02-21T06:37:49.175Z,98558.44
2023-02-21T06:39:54.051Z,98563.31
2023-02-21T06:41:59.864Z,98559.84
2023-02-21T06:44:04.882Z,98563.91
2023-02-21T06:46:09.830Z,98561.94
2023-02-21T06:48:17.987Z,98558.06
2023-02-21T06:50:22.944Z,98555.59
2023-02-21T06:52:27.760Z,98558.75
2023-02-21T06:54:35.124Z,98562.81
2023-02-21T06:56:40.141Z,98561.75
2023-02-21T06:58:45.047Z,98561.31
2023-02-21T07:00:49.877Z,98559.38
2023-02-21T07:02:56.985Z,98559.31
2023-02-21T07:05:01.822Z,98566.50
2023-02-21T07:07:06.556Z,98559.66
2023-02-21T07:09:11.535Z,98566.28
2023-02-21T07:11:20.241Z,98568.53
2023-02-21T07:13:25.141Z,98566.59
2023-02-21T07:15:30.162Z,98564.81
2023-02-21T07:17:35.302Z,98569.91
2023-02-21T07:19:40.754Z,98568.13
2023-02-21T07:21:45.690Z,98566.38
2023-02-21T07:23:52.643Z,98569.72
2023-02-21T07:25:57.838Z,98570.63
2023-02-21T07:28:05.108Z,98563.63
2023-02-21T07:30:11.112Z,98566.16
2023-02-21T07:32:15.949Z,98578.56
2023-02-21T07:34:22.424Z,98570.84
2023-02-21T07:36:27.243Z,98567.41
2023-02-21T07:38:33.753Z,98570.97
2023-02-21T07:40:38.565Z,98576.22
2023-02-21T07:42:47.002Z,98573.53
2023-02-21T07:45:00.811Z,98585.56
2023-02-21T07:47:05.739Z,98584.97
2023-02-21T07:49:10.783Z,98586.03
2023-02-21T07:51:15.858Z,98596.78
2023-02-21T07:53:21.157Z,98592.53
2023-02-21T07:55:26.063Z,98589.84
2023-02-21T07:57:30.822Z,98595.06
2023-02-21T07:59:35.799Z,98591.53
2023-02-21T08:01:43.432Z,98593.38
2023-02-21T08:03:48.314Z,98596.81
2023-02-21T08:05:54.490Z,98591.50
2023-02-21T08:07:59.336Z,98595.69
2023-02-21T08:10:04.113Z,98597.28
2023-02-21T08:12:09.514Z,98602.41
2023-02-21T08:14:14.331Z,98600.44
2023-02-21T08:16:19.412Z,98594.31
2023-02-21T08:18:27.758Z,98595.88
2023-02-21T08:20:32.682Z,98597.44
2023-02-21T08:22:38.930Z,98600.13
2023-02-21T08:24:43.767Z,98607.75
2023-02-21T08:26:48.882Z,98609.63
2023-02-21T08:28:55.914Z,98606.50
2023-02-21T08:31:00.732Z,98619.16
2023-02-21T08:33:06.406Z,98616.59
2023-02-21T08:35:17.341Z,98622.25
2023-02-21T08:37:22.189Z,98622.06
2023-02-21T08:39:32.066Z,98626.75
2023-02-21T08:41:40.400Z,98624.53
2023-02-21T08:43:45.163Z,98632.59
2023-02-21T08:45:50.055Z,98635.84
2023-02-21T08:47:55.401Z,98626.78
2023-02-21T08:50:00.974Z,98627.22
2023-02-21T08:52:08.751Z,98615.03
2023-02-21T08:54:13.698Z,98627.16
2023-02-21T08:56:21.861Z,98625.94
2023-02-21T08:58:26.702Z,98626.44
2023-02-21T09:00:31.498Z,98622.25
2023-02-21T09:02:36.295Z,98625.22
2023-02-21T09:04:41.072Z,98624.25
2023-02-21T09:06:45.872Z,98634.13
2023-02-21T09:08:56.209Z,98628.56
2023-02-21T09:11:01.419Z,98627.47
2023-02-21T09:13:08.473Z,98627.31
2023-02-21T09:15:13.846Z,98632.09
2023-02-21T09:17:18.925Z,98636.16
2023-02-21T09:19:24.438Z,98624.41
2023-02-21T09:21:29.886Z,98627.94
2023-02-21T09:23:34.844Z,98634.41
2023-02-21T09:25:42.195Z,98620.66
2023-02-21T09:27:47.380Z,98628.09
2023-02-21T09:29:52.076Z,98620.81
2023-02-21T09:31:56.955Z,98619.44
2023-02-21T09:34:01.732Z,98622.09
2023-02-21T09:36:06.904Z,98624.25
2023-02-21T09:38:12.184Z,98628.63
2023-02-21T09:40:24.603Z,98620.50
2023-02-21T09:42:36.522Z,98620.84
2023-02-21T09:44:41.378Z,98617.75
2023-02-21T09:46:49.272Z,98619.03
2023-02-21T09:48:57.013Z,98619.00
2023-02-21T09:51:08.514Z,98618.84
2023-02-21T09:53:17.411Z,98619.63
2023-02-21T09:55:30.785Z,98610.75
2023-02-21T09:57:39.681Z,98610.91
2023-02-21T09:59:44.782Z,98605.34
2023-02-21T10:01:58.812Z,98612.53
2023-02-21T10:04:15.313Z,98604.31
2023-02-21T10:06:35.368Z,98608.19
2023-02-21T10:08:50.443Z,98607.94
2023-02-21T10:10:59.736Z,98616.50
2023-02-21T10:13:13.958Z,98615.13
2023-02-21T10:15:28.649Z,98607.34
2023-02-21T10:17:39.709Z,98613.41
2023-02-21T10:19:48.434Z,98615.41
2023-02-21T10:21:53.692Z,98609.97
2023-02-21T10:24:04.941Z,98607.22
2023-02-21T10:26:14.618Z,98612.00
2023-02-21T10:28:26.422Z,98607.16
2023-02-21T10:30:37.162Z,98612.75
2023-02-21T10:32:42.214Z,98607.03
2023-02-21T10:34:49.652Z,98598.91
2023-02-21T10:36:54.977Z,98597.16
2023-02-21T10:39:06.625Z,98605.63
2023-02-21T10:41:13.347Z,98598.41
2023-02-21T10:43:25.358Z,98601.03
2023-02-21T10:45:36.867Z,98595.59
2023-02-21T10:47:53.811Z,98592.47
2023-02-21T10:50:04.256Z,98599.69
2023-02-21T10:52:13.619Z,98588.94
2023-02-21T10:54:24.014Z,98586.13
2023-02-21T10:56:31.877Z,98584.38
2023-02-21T10:58:39.665Z,98590.34
2023-02-21T11:00:48.828Z,98587.59
2023-02-21T11:03:05.198Z,98581.69
2023-02-21T11:05:15.250Z,98576.25
2023-02-21T11:07:20.116Z,98582.38
2023-02-21T11:09:35.960Z,98577.06
2023-02-21T11:11:43.352Z,98575.44
2023-02-21T11:13:50.830Z,98567.72
2023-02-21T11:16:12.660Z,98571.13
2023-02-21T11:18:25.194Z,98568.28
2023-02-21T11:20:30.229Z,98559.44
2023-02-21T11:22:42.873Z,98552.09
2023-02-21T11:24:52.542Z,98553.41
2023-02-21T11:27:00.187Z,98550.47
2023-02-21T11:29:14.960Z,98544.81
2023-02-21T11:31:30.077Z,98548.50
2023-02-21T11:33:39.261Z,98537.34
2023-02-21T11:35:49.903Z,98540.09
2023-02-21T11:37:58.330Z,98541.56
2023-02-21T11:40:05.956Z,98536.25
2023-02-21T11:42:29.079Z,98535.56
2023-02-21T11:44:38.333Z,98530.94
2023-02-21T11:46:50.362Z,98530.59
2023-02-21T11:49:04.226Z,98528.09
2023-02-21T11:51:21.034Z,98527.94
2023-02-21T11:53:30.156Z,98525.63
2023-02-21T11:55:35.285Z,98520.97
2023-02-21T11:57:45.979Z,98514.63
2023-02-21T11:59:59.614Z,98512.84
2023-02-21T12:02:34.632Z,98513.41
2023-02-21T12:05:02.558Z,98498.25
2023-02-21T12:07:15.003Z,98494.88
2023-02-21T12:09:25.930Z,98491.41
2023-02-21T12:12:02.990Z,98484.66
2023-02-21T12:14:34.650Z,98477.06
2023-02-21T12:16:54.105Z,98474.31
2023-02-21T12:19:15.288Z,98467.50
2023-02-21T12:21:45.098Z,98469.00
2023-02-21T12:24:00.032Z,98463.56
2023-02-21T12:26:18.369Z,98458.41
2023-02-21T12:28:32.118Z,98454.66
2023-02-21T12:31:06.130Z,98450.00
2023-02-21T12:33:26.086Z,98446.00
2023-02-21T12:35:57.890Z,98446.28
2023-02-21T12:38:11.985Z,98437.47
2023-02-21T12:40:23.607Z,98433.41
2023-02-21T12:42:44.016Z,98435.69
2023-02-21T12:44:59.618Z,98423.03
2023-02-21T12:47:10.704Z,98418.59
2023-02-21T12:49:24.109Z,98416.47
2023-02-21T12:51:33.198Z,98414.69
2023-02-21T12:53:43.664Z,98412.50
2023-02-21T12:55:51.677Z,98407.84
2023-02-21T12:58:01.338Z,98411.22
2023-02-21T13:00:19.022Z,98393.97
2023-02-21T13:02:35.179Z,98406.25
2023-02-21T13:04:50.761Z,98400.59
2023-02-21T13:07:07.748Z,98388.59
2023-02-21T13:09:22.333Z,98394.50
2023-02-21T13:11:32.348Z,98384.44
2023-02-21T13:13:38.474Z,98381.72
2023-02-21T13:15:46.918Z,98374.38
2023-02-21T13:18:01.460Z,98364.56
2023-02-21T13:20:12.953Z,98365.81
2023-02-21T13:23:00.201Z,98363.00
2023-02-21T13:25:32.234Z,98361.97
2023-02-21T13:27:56.920Z,98351.03
2023-02-21T13:30:13.913Z,98351.75
2023-02-21T13:32:21.203Z,98349.59
2023-02-21T13:34:30.128Z,98353.25
2023-02-21T13:36:46.600Z,98351.94
2023-02-21T13:39:02.356Z,98347.38
2023-02-21T13:41:16.931Z,98343.69
2023-02-21T13:43:29.220Z,98346.97
2023-02-21T13:45:34.364Z,98340.09
2023-02-21T13:47:53.787Z,98338.06
2023-02-21T13:49:59.420Z,98344.34
2023-02-21T13:52:31.587Z,98342.13
2023-02-21T13:54:36.716Z,98334.63
2023-02-21T13:56:46.409Z,98330.34
2023-02-21T13:58:52.040Z,98331.69
2023-02-21T14:01:15.983Z,98323.31
2023-02-21T14:03:36.566Z,98321.47
2023-02-21T14:06:11.192Z,98314.56
2023-02-21T14:08:22.370Z,98312.97
2023-02-21T14:10:43.874Z,98307.91
2023-02-21T14:12:53.978Z,98312.56
2023-02-21T14:15:08.985Z,98308.63
2023-02-21T14:17:16.608Z,98303.69
2023-02-21T14:19:27.951Z,98306.53
2023-02-21T14:21:37.477Z,98303.97
2023-02-21T14:23:52.516Z,98301.34
2023-02-21T14:26:01.315Z,98297.78
2023-02-21T14:28:40.917Z,98301.53
2023-02-21T14:30:48.373Z,98301.66
2023-02-21T14:32:57.489Z,98300.78
2023-02-21T14:35:02.923Z,98299.03
2023-02-21T14:37:14.916Z,98299.41
2023-02-21T14:39:20.949Z,98308.22
2023-02-21T14:41:40.389Z,98292.78
2023-02-21T14:43:58.571Z,98293.63
2023-02-21T14:46:49.389Z,98290.88
2023-02-21T14:49:13.188Z,98291.91
2023-02-21T14:52:03.302Z,98293.50
2023-02-21T14:54:28.884Z,98288.16
2023-02-21T14:56:50.930Z,98283.09
2023-02-21T14:59:25.722Z,98282.91
2023-02-21T15:01:48.737Z,98285.47
2023-02-21T15:04:03.406Z,98279.59
2023-02-21T15:06:11.449Z,98277.06
2023-02-21T15:08:23.765Z,98278.28
2023-02-21T15:10:31.163Z,98277.53
2023-02-21T15:12:44.436Z,98276.47
2023-02-21T15:14:57.082Z,98273.72
2023-02-21T15:17:16.275Z,98266.78
2023-02-21T15:19:29.089Z,98271.56
2023-02-21T15:21:34.000Z,98269.97
2023-02-21T15:23:39.013Z,98264.72
2023-02-21T15:25:43.862Z,98270.22
2023-02-21T15:28:18.397Z,98268.06
2023-02-21T15:30:24.842Z,98270.69
2023-02-21T15:32:32.393Z,98264.72
2023-02-21T15:34:45.883Z,98264.31
2023-02-21T15:36:56.223Z,98265.59
2023-02-21T15:39:08.896Z,98268.69
2023-02-21T15:41:19.576Z,98266.25
2023-02-21T15:43:33.618Z,98264.78
2023-02-21T15:45:46.643Z,98271.22
2023-02-21T15:47:57.654Z,98272.50
2023-02-21T15:50:06.075Z,98273.53
2023-02-21T15:52:28.701Z,98276.09
2023-02-21T15:54:35.065Z,98278.59
2023-02-21T15:56:39.968Z,98273.53
2023-02-21T15:58:44.789Z,98273.72
2023-02-21T16:00:51.621Z,98269.66
2023-02-21T16:03:33.856Z,98266.97
2023-02-21T16:05:38.768Z,98273.22
2023-02-21T16:07:46.148Z,98267.34
2023-02-21T16:09:54.330Z,98269.00
2023-02-21T16:12:03.765Z,98269.88
2023-02-21T16:14:08.780Z,98277.72
2023-02-21T16:16:13.760Z,98270.88
2023-02-21T16:18:22.353Z,98271.88
2023-02-21T16:20:32.656Z,98267.66
2023-02-21T16:22:59.609Z,98269.50
2023-02-21T16:25:11.582Z,98274.06
2023-02-21T16:27:19.620Z,98279.53
2023-02-21T16:29:24.437Z,98274.47
2023-02-21T16:31:32.136Z,98279.38
2023-02-21T16:33:39.968Z,98279.72
2023-02-21T16:35:46.015Z,98274.66
2023-02-21T16:37:52.012Z,98275.75
2023-02-21T16:39:56.853Z,98280.53
2023-02-21T16:42:01.785Z,98283.38
2023-02-21T16:44:06.584Z,98280.16
2023-02-21T16:46:11.429Z,98280.25
2023-02-21T16:48:21.130Z,98286.47
2023-02-21T16:50:32.380Z,98284.72
2023-02-21T16:52:37.160Z,98283.91
2023-02-21T16:54:42.127Z,98278.94
2023-02-21T16:56:51.543Z,98281.78
2023-02-21T16:58:58.681Z,98286.34
2023-02-21T17:01:05.842Z,98290.09
2023-02-21T17:03:10.593Z,98288.44
2023-02-21T17:05:15.432Z,98294.88
2023-02-21T17:07:24.409Z,98296.59
2023-02-21T17:09:33.422Z,98294.28
2023-02-21T17:11:38.225Z,98294.34
2023-02-21T17:13:43.160Z,98299.94
2023-02-21T17:15:48.246Z,98293.97
2023-02-21T17:17:54.019Z,98304.03
2023-02-21T17:19:59.256Z,98303.50
2023-02-21T17:22:04.066Z,98306.19
2023-02-21T17:24:12.178Z,98313.31
2023-02-21T17:26:19.563Z,98315.94
2023-02-21T17:28:24.346Z,98319.63
2023-02-21T17:30:29.221Z,98321.59
2023-02-21T17:32:34.149Z,98317.47
2023-02-21T17:34:40.378Z,98321.13
2023-02-21T17:36:45.198Z,98327.56
2023-02-21T17:38:50.298Z,98325.88
2023-02-21T17:41:00.359Z,98333.25
2023-02-21T17:43:08.810Z,98331.63
2023-02-21T17:45:14.391Z,98335.13
2023-02-21T17:47:21.677Z,98330.78
2023-02-21T17:49:29.713Z,98330.00
2023-02-21T17:51:34.655Z,98340.63
2023-02-21T17:53:39.393Z,98343.34
2023-02-21T17:55:44.279Z,98344.25
2023-02-21T17:57:51.959Z,98347.13
2023-02-21T17:59:56.846Z,98343.00
2023-02-21T18:02:01.628Z,98342.06
2023-02-21T18:04:06.686Z,98337.78
2023-02-21T18:06:11.447Z,98347.50
2023-02-21T18:08:16.393Z,98339.88
2023-02-21T18:10:22.371Z,98341.72
2023-02-21T18:12:27.206Z,98342.63
2023-02-21T18:14:34.933Z,98347.06
2023-02-21T18:16:39.758Z,98341.09
2023-02-21T18:18:45.283Z,98342.06
2023-02-21T18:20:50.244Z,98348.25
2023-02-21T18:22:57.109Z,98346.97
2023-02-21T18:25:01.883Z,98345.47
2023-02-21T18:27:06.948Z,98342.94
2023-02-21T18:29:12.164Z,98336.91
2023-02-21T18:31:20.970Z,98345.84
2023-02-21T18:33:28.447Z,98350.34
2023-02-21T18:35:33.246Z,98358.22
2023-02-21T18:37:38.273Z,98354.84
2023-02-21T18:39:43.073Z,98346.16
2023-02-21T18:41:48.243Z,98341.94
2023-02-21T18:43:55.660Z,98351.97
2023-02-21T18:46:01.592Z,98346.06
2023-02-21T18:48:09.134Z,98338.94
2023-02-21T18:50:14.179Z,98336.34
2023-02-21T18:52:19.826Z,98351.13
2023-02-21T18:54:24.636Z,98346.16
2023-02-21T18:56:29.530Z,98342.03
2023-02-21T18:58:34.459Z,98343.88
2023-02-21T19:00:41.314Z,98343.03
2023-02-21T19:02:46.163Z,98348.25
2023-02-21T19:04:53.944Z,98349.25
2023-02-21T19:06:58.968Z,98350.41
2023-02-21T19:09:03.920Z,98346.03
2023-02-21T19:11:08.750Z,98351.25
2023-02-21T19:13:13.523Z,98350.41
2023-02-21T19:15:19.104Z,98349.53
2023-02-21T19:17:24.206Z,98347.78
2023-02-21T19:19:31.374Z,98350.44
2023-02-21T19:21:38.791Z,98362.78
2023-02-21T19:23:45.148Z,98365.50
2023-02-21T19:25:49.953Z,98358.53
2023-02-21T19:28:00.201Z,98360.28
2023-02-21T19:30:05.324Z,98358.59
2023-02-21T19:32:10.624Z,98359.50
2023-02-21T19:34:15.199Z,98358.78
2023-02-21T19:36:20.165Z,98355.53
2023-02-21T19:38:27.540Z,98360.88
2023-02-21T19:40:33.046Z,98352.41
2023-02-21T19:42:37.934Z,98357.94
2023-02-21T19:44:43.046Z,98359.94
2023-02-21T19:46:48.564Z,98360.97
2023-02-21T19:48:54.028Z,98361.03
2023-02-21T19:50:58.580Z,98357.69
2023-02-21T19:53:03.392Z,98363.13
2023-02-21T19:55:13.009Z,98359.63
2023-02-21T19:57:17.828Z,98356.16
2023-02-21T19:59:22.666Z,98357.81
2023-02-21T20:01:29.015Z,98363.03
2023-02-21T20:03:37.348Z,98367.41
2023-02-21T20:05:44.986Z,98365.63
2023-02-21T20:07:52.597Z,98372.84
2023-02-21T20:10:01.689Z,98371.13
2023-02-21T20:12:12.238Z,98364.50
2023-02-21T20:14:17.780Z,98370.13
2023-02-21T20:16:26.125Z,98370.31
2023-02-21T20:18:33.049Z,98373.91
2023-02-21T20:20:43.119Z,98373.25
2023-02-21T20:22:51.784Z,98377.66
2023-02-21T20:24:56.561Z,98370.81
2023-02-21T20:27:01.800Z,98378.63
2023-02-21T20:29:11.359Z,98374.44
2023-02-21T20:31:16.984Z,98380.53
2023-02-21T20:33:25.161Z,98380.50
2023-02-21T20:35:36.686Z,98380.41
2023-02-21T20:37:41.460Z,98380.41
2023-02-21T20:39:46.386Z,98377.81
2023-02-21T20:41:55.599Z,98373.66
2023-02-21T20:44:03.365Z,98376.38
2023-02-21T20:46:16.067Z,98384.28
2023-02-21T20:48:25.690Z,98379.22
2023-02-21T20:50:30.625Z,98375.81
2023-02-21T20:52:39.804Z,98381.81
2023-02-21T20:54:46.869Z,98372.13
2023-02-21T20:56:56.811Z,98371.28
2023-02-21T20:59:01.735Z,98363.50
2023-02-21T21:01:06.790Z,98367.22
2023-02-21T21:03:16.507Z,98369.16
2023-02-21T21:05:21.804Z,98375.44
2023-02-21T21:07:26.376Z,98364.69
2023-02-21T21:09:37.181Z,98374.41
2023-02-21T21:11:42.463Z,98372.81
2023-02-21T21:13:48.005Z,98375.63
2023-02-21T21:15:55.935Z,98373.25
2023-02-21T21:18:05.700Z,98375.94
2023-02-21T21:20:14.571Z,98368.13
2023-02-21T21:22:24.349Z,98374.97
2023-02-21T21:24:29.251Z,98370.63
2023-02-21T21:26:36.595Z,98378.56
2023-02-21T21:28:45.655Z,98375.97
2023-02-21T21:30:50.623Z,98382.06
2023-02-21T21:32:56.282Z,98373.56
2023-02-21T21:35:09.446Z,98381.34
2023-02-21T21:37:21.627Z,98376.16
2023-02-21T21:39:34.106Z,98374.44
2023-02-21T21:41:44.550Z,98370.03
2023-02-21T21:43:49.471Z,98369.09
2023-02-21T21:45:59.287Z,98372.59
2023-02-21T21:48:05.831Z,98361.34
2023-02-21T21:50:16.078Z,98357.06
2023-02-21T21:52:25.733Z,98360.56
2023-02-21T21:54:31.971Z,98352.91
2023-02-21T21:56:39.989Z,98353.94
2023-02-21T21:58:46.428Z,98354.81
2023-02-21T22:00:51.752Z,98354.81
2023-02-21T22:02:58.391Z,98349.81
2023-02-21T22:05:03.286Z,98360.31
2023-02-21T22:07:11.959Z,98354.41
2023-02-21T22:09:20.148Z,98353.13
2023-02-21T22:11:25.070Z,98355.72
2023-02-21T22:13:33.961Z,98352.28
2023-02-21T22:15:38.811Z,98349.91
2023-02-21T22:17:43.773Z,98359.88
2023-02-21T22:19:50.634Z,98362.06
2023-02-21T22:21:59.423Z,98355.34
2023-02-21T22:24:04.323Z,98364.22
2023-02-21T22:26:18.974Z,98359.94
2023-02-21T22:28:23.765Z,98364.38
2023-02-21T22:30:28.864Z,98366.06
2023-02-21T22:32:33.785Z,98362.63
2023-02-21T22:34:38.639Z,98358.19
2023-02-21T22:36:48.594Z,98358.91
2023-02-21T22:38:54.988Z,98358.88
2023-02-21T22:41:00.386Z,98343.31
2023-02-21T22:43:09.099Z,98345.91
2023-02-21T22:45:14.583Z,98341.72
2023-02-21T22:47:19.432Z,98344.31
2023-02-21T22:49:24.190Z,98342.59
2023-02-21T22:51:31.504Z,98339.16
2023-02-21T22:53:36.319Z,98339.19
2023-02-21T22:55:41.371Z,98338.34
2023-02-21T22:57:46.570Z,98334.13
2023-02-21T22:59:58.103Z,98331.63
2023-02-21T23:02:03.470Z,98333.47
2023-02-21T23:04:16.215Z,98341.22
2023-02-21T23:06:21.340Z,98338.66
2023-02-21T23:08:27.152Z,98344.75
2023-02-21T23:10:31.976Z,98341.44
2023-02-21T23:12:37.907Z,98341.44
2023-02-21T23:14:42.764Z,98344.06
2023-02-21T23:16:50.623Z,98334.53
2023-02-21T23:18:55.467Z,98335.38
2023-02-21T23:21:00.800Z,98332.84
2023-02-21T23:23:05.856Z,98326.00
2023-02-21T23:25:20.508Z,98329.00
2023-02-21T23:27:25.392Z,98327.50
2023-02-21T23:29:31.093Z,98327.53
2023-02-21T23:31:35.859Z,98327.53
2023-02-21T23:33:44.506Z,98321.63
2023-02-21T23:35:52.070Z,98321.59
2023-02-21T23:38:00.208Z,98320.69
2023-02-21T23:40:05.200Z,98315.50
2023-02-21T23:42:11.253Z,98315.56
2023-02-21T23:44:16.767Z,98315.59
2023-02-21T23:46:24.761Z,98317.31
2023-02-21T23:48:29.927Z,98314.72
2023-02-21T23:50:38.535Z,98308.66
2023-02-21T23:52:43.409Z,98308.94
2023-02-21T23:54:48.189Z,98317.75
2023-02-21T23:56:53.055Z,98314.44
2023-02-21T23:58:58.107Z,98307.69
